Time;durP1;ratioP1;P1;durP2;ratioP2;P2;SDS_P1;SDS_P2;PMS_P1;PMS_P2;Temp;Humidity;BMP_temperature;BMP_pressure;BME280_temperature;BME280_humidity;BME280_pressure;Samples;Min_cycle;Max_cycle;Signal;HPM_P1;HPM_P2
2021/04/03 00:00:57;;;;;;;14.17;9.50;;;1.70;99.90;;;;;;2081529;28;20195;-67
2021/04/03 00:01:58;;;;;;;16.60;10.63;;;1.70;99.90;;;;;;2082335;28;20313;-67
2021/04/03 00:02:59;;;;;;;16.67;10.07;;;1.80;99.90;;;;;;2082216;28;20188;-66
2021/04/03 00:03:59;;;;;;;16.55;10.23;;;1.70;99.90;;;;;;2083267;28;20270;-67
2021/04/03 00:05:01;;;;;;;18.63;10.47;;;1.70;99.90;;;;;;2082626;28;20185;-66
2021/04/03 00:06:03;;;;;;;17.65;10.52;;;1.70;99.90;;;;;;2082559;28;20670;-66
2021/04/03 00:07:04;;;;;;;19.08;10.13;;;1.70;99.90;;;;;;2082377;28;20211;-66
2021/04/03 00:08:06;;;;;;;18.77;10.70;;;1.70;99.90;;;;;;2082072;28;20183;-66
2021/04/03 00:09:06;;;;;;;19.08;10.93;;;1.70;99.90;;;;;;2081427;28;20786;-67
2021/04/03 00:10:20;;;;;;;19.17;11.07;;;1.70;99.90;;;;;;2082598;28;20187;-66
2021/04/03 00:11:21;;;;;;;19.27;11.52;;;1.70;99.90;;;;;;2089231;28;20198;-65
2021/04/03 00:12:22;;;;;;;17.60;10.90;;;1.70;99.90;;;;;;2090076;28;20191;-67
2021/04/03 00:13:28;;;;;;;18.80;10.67;;;1.70;99.90;;;;;;2082345;28;20208;-66
2021/04/03 00:14:29;;;;;;;17.77;11.00;;;1.70;99.90;;;;;;2082391;28;20683;-66
2021/04/03 00:15:29;;;;;;;18.83;11.17;;;1.70;99.90;;;;;;2082109;28;20184;-66
2021/04/03 00:16:30;;;;;;;18.20;11.10;;;1.70;99.90;;;;;;2082327;28;20185;-67
2021/04/03 00:17:31;;;;;;;20.83;12.23;;;1.70;99.90;;;;;;2082078;28;20599;-66
2021/04/03 00:18:32;;;;;;;19.67;11.27;;;1.60;99.90;;;;;;2082223;28;20647;-66
2021/04/03 00:19:33;;;;;;;19.00;11.15;;;1.60;99.90;;;;;;2081861;28;20567;-67
2021/04/03 00:20:37;;;;;;;20.07;11.33;;;1.60;99.90;;;;;;2082163;28;20191;-66
2021/04/03 00:21:37;;;;;;;19.13;11.30;;;1.70;99.90;;;;;;2081455;28;20234;-66
2021/04/03 00:22:38;;;;;;;19.50;11.53;;;1.70;99.90;;;;;;2082184;28;20189;-66
2021/04/03 00:23:39;;;;;;;18.43;11.53;;;1.70;99.90;;;;;;2089672;28;20171;-66
2021/04/03 00:24:39;;;;;;;20.40;12.23;;;1.70;99.90;;;;;;2089719;28;20242;-67
2021/04/03 00:25:40;;;;;;;18.53;12.20;;;1.60;99.90;;;;;;2082189;28;20186;-67
2021/04/03 00:26:41;;;;;;;17.97;11.60;;;1.60;99.90;;;;;;2089841;28;20417;-67
2021/04/03 00:27:44;;;;;;;23.10;12.83;;;1.60;99.90;;;;;;2089699;28;20425;-66
2021/04/03 00:28:44;;;;;;;21.83;11.82;;;1.60;99.90;;;;;;2082041;28;20682;-66
2021/04/03 00:29:45;;;;;;;19.33;11.63;;;1.60;99.90;;;;;;2082151;28;20188;-66
2021/04/03 00:30:46;;;;;;;20.43;11.87;;;1.70;99.90;;;;;;2081691;28;20737;-66
2021/04/03 00:31:46;;;;;;;21.63;12.03;;;1.60;99.90;;;;;;2081638;28;20212;-67
2021/04/03 00:32:53;;;;;;;18.90;12.30;;;1.60;99.90;;;;;;2082094;28;20176;-65
2021/04/03 00:33:54;;;;;;;19.05;12.23;;;1.60;99.90;;;;;;2082132;28;20282;-66
2021/04/03 00:34:54;;;;;;;21.07;12.17;;;1.60;99.90;;;;;;2081994;28;20180;-67
2021/04/03 00:35:55;;;;;;;20.23;11.93;;;1.60;99.90;;;;;;2082050;28;20594;-66
2021/04/03 00:36:56;;;;;;;24.60;11.87;;;1.60;99.90;;;;;;2082132;28;20186;-66
2021/04/03 00:37:58;;;;;;;24.20;11.93;;;1.60;99.90;;;;;;2082130;28;20199;-67
2021/04/03 00:38:59;;;;;;;20.77;11.60;;;1.60;99.90;;;;;;2081970;28;20206;-67
2021/04/03 00:40:00;;;;;;;19.87;12.37;;;1.60;99.90;;;;;;2082021;28;20188;-66
2021/04/03 00:41:00;;;;;;;22.03;11.93;;;1.60;99.90;;;;;;2081380;28;20203;-66
2021/04/03 00:42:16;;;;;;;17.57;11.73;;;1.60;99.90;;;;;;2081952;28;20190;-65
2021/04/03 00:43:22;;;;;;;19.23;11.73;;;1.60;99.90;;;;;;2081388;28;20187;-66
2021/04/03 00:44:22;;;;;;;19.13;12.40;;;1.60;99.90;;;;;;2082362;28;20175;-66
2021/04/03 00:45:23;;;;;;;20.73;11.77;;;1.60;99.90;;;;;;2089508;28;20297;-66
2021/04/03 00:46:24;;;;;;;17.90;11.30;;;1.60;99.90;;;;;;2082015;28;20188;-66
2021/04/03 00:47:24;;;;;;;19.17;12.30;;;1.60;99.90;;;;;;2081875;28;20191;-66
2021/04/03 00:48:25;;;;;;;18.83;12.13;;;1.60;99.90;;;;;;2081848;28;20730;-66
2021/04/03 00:49:26;;;;;;;18.37;12.10;;;1.60;99.90;;;;;;2082029;28;20189;-66
2021/04/03 00:50:34;;;;;;;19.97;11.97;;;1.70;99.90;;;;;;2082076;28;20179;-66
2021/04/03 00:51:35;;;;;;;20.70;11.93;;;1.60;99.90;;;;;;2089139;28;20167;-66
2021/04/03 00:52:36;;;;;;;19.23;12.33;;;1.70;99.90;;;;;;2089578;28;20692;-66
2021/04/03 00:53:37;;;;;;;22.00;11.95;;;1.70;99.90;;;;;;2089465;28;20174;-66
2021/04/03 00:54:39;;;;;;;22.60;13.47;;;1.60;99.90;;;;;;2089625;28;20183;-65
2021/04/03 00:55:40;;;;;;;21.10;12.65;;;1.60;99.90;;;;;;2081187;28;20175;-66
2021/04/03 00:56:41;;;;;;;21.10;12.23;;;1.60;99.90;;;;;;2081426;28;20183;-66
2021/04/03 00:57:42;;;;;;;22.70;12.87;;;1.60;99.90;;;;;;2081658;28;20565;-66
2021/04/03 00:58:43;;;;;;;21.80;12.60;;;1.60;99.90;;;;;;2089518;28;20271;-66
2021/04/03 00:59:44;;;;;;;21.43;11.97;;;1.60;99.90;;;;;;2089296;28;20562;-66
2021/04/03 01:00:46;;;;;;;19.73;11.98;;;1.60;99.90;;;;;;2081635;28;20275;-66
2021/04/03 01:01:47;;;;;;;21.65;12.57;;;1.60;99.90;;;;;;2088886;28;20195;-66
2021/04/03 01:02:48;;;;;;;21.57;12.70;;;1.60;99.90;;;;;;2081151;28;20582;-65
2021/04/03 01:03:49;;;;;;;20.92;13.05;;;1.60;99.90;;;;;;2081110;28;20235;-66
2021/04/03 01:04:50;;;;;;;21.20;11.90;;;1.60;99.90;;;;;;2089578;28;20631;-65
2021/04/03 01:05:51;;;;;;;19.07;12.33;;;1.50;99.90;;;;;;2081434;28;20275;-66
2021/04/03 01:06:52;;;;;;;20.30;12.38;;;1.50;99.90;;;;;;2081874;28;20196;-65
2021/04/03 01:07:54;;;;;;;25.83;13.73;;;1.50;99.90;;;;;;2081738;28;20188;-66
2021/04/03 01:08:54;;;;;;;23.45;12.82;;;1.50;99.90;;;;;;2089278;28;20210;-66
2021/04/03 01:09:55;;;;;;;22.27;13.70;;;1.50;99.90;;;;;;2089257;28;20197;-66
2021/04/03 01:10:56;;;;;;;21.50;12.10;;;1.50;99.90;;;;;;2081145;28;20208;-65
2021/04/03 01:12:40;;;;;;;22.48;13.27;;;1.50;99.90;;;;;;2089264;28;20622;-66
2021/04/03 01:14:01;;;;;;;20.15;12.18;;;1.50;99.90;;;;;;2083735;28;20191;-65
2021/04/03 01:15:16;;;;;;;18.17;12.07;;;1.60;99.90;;;;;;2089448;28;20168;-66
2021/04/03 01:16:28;;;;;;;21.88;11.98;;;1.50;99.90;;;;;;2087451;28;20202;-66
2021/04/03 01:18:12;;;;;;;20.17;11.90;;;1.60;99.90;;;;;;2081761;28;20172;-66
2021/04/03 01:19:45;;;;;;;19.88;11.85;;;1.60;99.90;;;;;;2081597;28;20175;-66
2021/04/03 01:21:13;;;;;;;20.25;11.88;;;1.70;99.90;;;;;;2078442;28;20275;-65
2021/04/03 01:22:52;;;;;;;22.15;11.60;;;1.70;99.90;;;;;;2081511;28;20179;-66
2021/04/03 01:24:21;;;;;;;20.95;11.52;;;1.80;99.90;;;;;;2089181;28;20198;-66
2021/04/03 01:25:55;;;;;;;16.98;11.35;;;1.80;99.90;;;;;;2084942;28;20165;-66
2021/04/03 01:27:08;;;;;;;19.52;11.63;;;1.90;99.90;;;;;;2081603;28;20832;-66
2021/04/03 01:29:01;;;;;;;22.40;12.45;;;2.00;99.90;;;;;;2081541;28;20255;-66
2021/04/03 01:30:08;;;;;;;18.67;11.13;;;1.90;99.90;;;;;;2080911;28;20190;-66
2021/04/03 01:31:10;;;;;;;18.77;11.70;;;2.00;99.90;;;;;;2080226;28;20235;-66
2021/04/03 01:32:11;;;;;;;22.02;12.68;;;2.10;99.90;;;;;;2089049;28;20278;-66
2021/04/03 01:33:16;;;;;;;17.85;12.32;;;2.20;99.90;;;;;;2080777;28;20188;-66
2021/04/03 01:34:28;;;;;;;20.85;12.60;;;2.20;99.90;;;;;;2081449;28;20266;-66
2021/04/03 01:35:42;;;;;;;19.35;12.75;;;2.20;99.90;;;;;;2080684;28;20692;-66
2021/04/03 01:36:45;;;;;;;19.40;11.48;;;2.20;99.90;;;;;;2079396;28;20173;-67
2021/04/03 01:37:51;;;;;;;18.45;12.18;;;2.30;99.90;;;;;;2080709;28;20208;-66
2021/04/03 01:39:21;;;;;;;16.15;11.18;;;2.20;99.90;;;;;;2073378;28;20207;-66
2021/04/03 01:40:24;;;;;;;18.63;12.05;;;2.30;99.90;;;;;;2080788;28;20250;-66
2021/04/03 01:41:28;;;;;;;19.42;11.93;;;2.30;99.90;;;;;;2080659;28;20199;-66
2021/04/03 01:42:34;;;;;;;17.33;11.40;;;2.30;99.90;;;;;;2089043;28;20752;-66
2021/04/03 01:43:41;;;;;;;21.08;11.98;;;2.40;99.90;;;;;;2080663;28;20602;-66
2021/04/03 01:44:49;;;;;;;17.05;11.05;;;2.40;99.90;;;;;;2081807;28;20169;-66
2021/04/03 01:45:51;;;;;;;18.10;11.65;;;2.40;99.90;;;;;;2080746;28;20412;-66
2021/04/03 01:46:53;;;;;;;19.05;11.80;;;2.50;99.90;;;;;;2080910;28;20180;-66
2021/04/03 01:47:54;;;;;;;20.17;12.77;;;2.40;99.90;;;;;;2080701;28;20264;-66
2021/04/03 01:48:57;;;;;;;18.80;12.07;;;2.40;99.90;;;;;;2080662;28;20746;-66
2021/04/03 01:49:59;;;;;;;19.63;12.20;;;2.40;99.90;;;;;;2072790;28;20192;-66
2021/04/03 01:51:00;;;;;;;20.67;11.50;;;2.40;99.90;;;;;;2080271;28;20465;-66
2021/04/03 01:52:02;;;;;;;17.40;11.88;;;2.40;99.90;;;;;;2081093;28;20217;-66
2021/04/03 01:53:03;;;;;;;17.73;11.88;;;2.30;99.90;;;;;;2081278;28;20610;-66
2021/04/03 01:54:09;;;;;;;20.47;12.00;;;2.30;99.90;;;;;;2081257;28;20177;-66
2021/04/03 01:55:11;;;;;;;17.42;11.50;;;2.40;99.90;;;;;;2080821;28;20232;-66
2021/04/03 01:56:16;;;;;;;14.75;11.48;;;2.40;99.90;;;;;;2080572;28;20185;-65
2021/04/03 01:57:17;;;;;;;18.42;11.15;;;2.30;99.90;;;;;;2088866;28;20678;-65
2021/04/03 01:58:18;;;;;;;16.20;10.77;;;2.30;99.90;;;;;;2080460;28;20185;-65
2021/04/03 01:59:19;;;;;;;21.63;12.03;;;2.30;99.90;;;;;;2080739;28;20676;-66
2021/04/03 02:00:25;;;;;;;18.97;12.13;;;2.30;99.90;;;;;;2080398;28;20258;-66
2021/04/03 02:01:26;;;;;;;22.60;11.80;;;2.30;99.90;;;;;;2094000;22;20172;-67
2021/04/03 02:02:27;;;;;;;18.23;11.15;;;2.30;99.90;;;;;;2079718;28;20209;-67
2021/04/03 02:03:32;;;;;;;18.67;11.23;;;2.30;99.90;;;;;;2072891;28;20173;-67
2021/04/03 02:04:33;;;;;;;19.42;12.20;;;2.30;99.90;;;;;;2073492;28;20188;-68
2021/04/03 02:05:34;;;;;;;20.20;11.27;;;2.20;99.90;;;;;;2080864;28;20184;-68
2021/04/03 02:06:37;;;;;;;18.13;11.32;;;2.20;99.90;;;;;;2089284;28;20176;-68
2021/04/03 02:07:43;;;;;;;17.73;10.98;;;2.20;99.90;;;;;;2080478;28;20262;-68
2021/04/03 02:08:45;;;;;;;22.98;11.35;;;2.20;99.90;;;;;;2073652;28;20638;-68
2021/04/03 02:09:51;;;;;;;17.40;11.05;;;2.20;99.90;;;;;;2081038;28;20570;-68
2021/04/03 02:10:54;;;;;;;19.40;11.25;;;2.20;99.90;;;;;;2079871;28;20654;-68
2021/04/03 02:11:56;;;;;;;19.00;11.88;;;2.20;99.90;;;;;;2072415;28;20724;-68
2021/04/03 02:13:01;;;;;;;17.17;10.52;;;2.20;99.90;;;;;;2064854;28;20202;-68
2021/04/03 02:14:04;;;;;;;17.10;11.45;;;2.20;99.90;;;;;;2072599;28;20201;-68
2021/04/03 02:15:10;;;;;;;19.65;11.13;;;2.20;99.90;;;;;;2073486;28;20186;-68
2021/04/03 02:16:11;;;;;;;16.00;10.73;;;2.20;99.90;;;;;;2073333;28;20657;-68
2021/04/03 02:17:17;;;;;;;16.02;10.75;;;2.30;99.90;;;;;;2064259;28;20182;-69
2021/04/03 02:18:20;;;;;;;17.30;11.20;;;2.20;99.90;;;;;;2065087;28;20193;-68
2021/04/03 02:19:21;;;;;;;16.50;10.85;;;2.20;99.90;;;;;;2064900;28;20209;-68
2021/04/03 02:20:24;;;;;;;16.92;10.63;;;2.20;99.90;;;;;;2064654;28;20606;-68
2021/04/03 02:21:25;;;;;;;15.07;10.77;;;2.20;99.90;;;;;;2072217;28;20741;-68
2021/04/03 02:22:26;;;;;;;14.90;10.10;;;2.20;99.90;;;;;;2073279;28;20192;-68
2021/04/03 02:23:28;;;;;;;16.63;10.80;;;2.20;99.90;;;;;;2073295;28;20306;-68
2021/04/03 02:24:29;;;;;;;18.35;11.02;;;2.20;99.90;;;;;;2073175;28;20387;-68
2021/04/03 02:25:30;;;;;;;15.55;10.27;;;2.20;99.90;;;;;;2073487;28;20188;-68
2021/04/03 02:26:37;;;;;;;16.77;10.27;;;2.30;99.90;;;;;;2073314;28;20193;-68
2021/04/03 02:27:39;;;;;;;18.52;11.05;;;2.30;99.90;;;;;;2073530;28;20177;-68
2021/04/03 02:28:41;;;;;;;15.63;10.73;;;2.30;99.90;;;;;;2073132;28;20664;-69
2021/04/03 02:29:41;;;;;;;17.08;10.90;;;2.30;99.90;;;;;;2072717;28;20710;-69
2021/04/03 02:30:42;;;;;;;17.03;11.10;;;2.30;99.90;;;;;;2072413;28;20189;-69
2021/04/03 02:31:43;;;;;;;15.30;10.13;;;2.30;99.90;;;;;;2072792;28;20218;-69
2021/04/03 02:32:49;;;;;;;18.27;9.63;;;2.30;99.90;;;;;;2073341;28;20212;-69
2021/04/03 02:33:52;;;;;;;14.23;10.20;;;2.40;99.90;;;;;;2073207;28;20257;-69
2021/04/03 02:34:52;;;;;;;14.43;9.95;;;2.40;99.90;;;;;;2072727;28;20222;-68
2021/04/03 02:35:53;;;;;;;17.23;10.00;;;2.40;99.90;;;;;;2072697;28;20535;-69
2021/04/03 02:36:54;;;;;;;16.00;10.10;;;2.30;99.90;;;;;;2073245;28;20466;-69
2021/04/03 02:38:03;;;;;;;16.33;10.20;;;2.20;99.90;;;;;;2076619;28;20266;-67
2021/04/03 02:39:04;;;;;;;12.43;8.65;;;2.20;99.90;;;;;;2080749;28;20560;-67
2021/04/03 02:40:08;;;;;;;16.70;10.10;;;2.30;99.90;;;;;;2080713;28;20242;-67
2021/04/03 02:41:09;;;;;;;15.48;10.00;;;2.30;99.90;;;;;;2072002;28;20692;-67
2021/04/03 02:42:19;;;;;;;17.67;10.00;;;2.30;99.90;;;;;;2072403;28;20220;-68
2021/04/03 02:43:51;;;;;;;16.45;9.43;;;2.40;99.90;;;;;;2081728;28;20168;-68
2021/04/03 02:44:56;;;;;;;15.07;9.80;;;2.40;99.90;;;;;;2072591;28;20199;-68
2021/04/03 02:46:14;;;;;;;14.02;9.20;;;2.40;99.90;;;;;;2072751;28;20276;-68
2021/04/03 02:47:39;;;;;;;17.00;9.48;;;2.50;99.90;;;;;;2080954;28;20263;-68
2021/04/03 02:48:47;;;;;;;14.15;9.25;;;2.40;99.90;;;;;;2080868;28;20171;-68
2021/04/03 02:50:05;;;;;;;16.38;9.85;;;2.40;99.90;;;;;;2080749;28;20184;-68
2021/04/03 02:51:08;;;;;;;19.55;8.98;;;2.30;99.90;;;;;;2080758;28;20192;-68
2021/04/03 02:52:15;;;;;;;17.35;9.65;;;2.30;99.90;;;;;;2080548;28;20682;-68
2021/04/03 02:53:19;;;;;;;19.60;10.23;;;2.40;99.90;;;;;;2065286;28;20189;-68
2021/04/03 02:54:22;;;;;;;15.00;9.13;;;2.40;99.90;;;;;;2065714;28;20551;-68
2021/04/03 02:55:28;;;;;;;13.63;8.90;;;2.40;99.90;;;;;;2073127;28;20743;-68
2021/04/03 02:56:30;;;;;;;14.55;9.18;;;2.40;99.90;;;;;;2073290;28;20224;-68
2021/04/03 02:57:32;;;;;;;15.52;9.77;;;2.40;99.90;;;;;;2080915;28;20181;-68
2021/04/03 02:58:36;;;;;;;14.45;9.73;;;2.50;99.90;;;;;;2072527;28;20196;-68
2021/04/03 02:59:44;;;;;;;17.65;9.45;;;2.50;99.90;;;;;;2065477;28;20233;-68
2021/04/03 03:00:51;;;;;;;16.10;10.13;;;2.50;99.90;;;;;;2073372;28;20173;-68
2021/04/03 03:01:54;;;;;;;17.90;9.48;;;2.50;99.90;;;;;;2065020;28;20264;-68
2021/04/03 03:02:56;;;;;;;15.82;8.77;;;2.40;99.90;;;;;;2064804;28;20564;-68
2021/04/03 03:03:57;;;;;;;14.93;8.80;;;2.40;99.90;;;;;;2064409;28;20191;-68
2021/04/03 03:04:59;;;;;;;16.58;8.45;;;2.50;99.90;;;;;;2064325;28;20705;-68
2021/04/03 03:06:00;;;;;;;14.50;9.43;;;2.40;99.90;;;;;;2072499;28;20631;-70
2021/04/03 03:07:01;;;;;;;15.45;9.23;;;2.40;99.90;;;;;;2072572;28;20196;-68
2021/04/03 03:08:04;;;;;;;15.50;9.60;;;2.50;99.90;;;;;;2072336;28;20185;-67
2021/04/03 03:09:05;;;;;;;15.40;9.00;;;2.40;99.90;;;;;;2072659;28;20435;-68
2021/04/03 03:10:07;;;;;;;14.52;9.60;;;2.40;99.90;;;;;;2080649;28;20583;-68
2021/04/03 03:11:09;;;;;;;16.60;9.48;;;2.50;99.90;;;;;;2080456;28;20203;-69
2021/04/03 03:12:13;;;;;;;15.48;9.10;;;2.50;99.90;;;;;;2080509;28;20209;-68
2021/04/03 03:13:19;;;;;;;13.50;9.00;;;2.50;99.90;;;;;;2072820;28;20710;-67
2021/04/03 03:14:22;;;;;;;17.55;9.25;;;2.50;99.90;;;;;;2073347;28;20188;-67
2021/04/03 03:15:29;;;;;;;13.40;8.70;;;2.50;99.90;;;;;;2072512;28;20648;-67
2021/04/03 03:16:30;;;;;;;14.50;9.52;;;2.50;99.90;;;;;;2081358;28;20279;-67
2021/04/03 03:17:31;;;;;;;11.98;8.18;;;2.50;99.90;;;;;;2080556;28;20180;-67
2021/04/03 03:18:32;;;;;;;14.87;9.07;;;2.50;99.90;;;;;;2080354;28;20667;-67
2021/04/03 03:19:33;;;;;;;14.63;8.60;;;2.50;99.90;;;;;;2071865;28;20421;-67
2021/04/03 03:20:34;;;;;;;16.50;8.97;;;2.50;99.90;;;;;;2064073;28;20637;-67
2021/04/03 03:21:37;;;;;;;14.63;8.88;;;2.50;99.90;;;;;;2071248;28;20868;-67
2021/04/03 03:22:40;;;;;;;18.77;9.52;;;2.50;99.90;;;;;;2080228;28;20181;-67
2021/04/03 03:23:41;;;;;;;13.27;8.75;;;2.50;99.90;;;;;;2080222;28;20225;-67
2021/04/03 03:24:42;;;;;;;16.67;8.27;;;2.40;99.90;;;;;;2072144;28;20184;-67
2021/04/03 03:25:42;;;;;;;12.43;8.43;;;2.50;99.90;;;;;;2072103;28;20185;-67
2021/04/03 03:26:43;;;;;;;13.63;8.70;;;2.50;99.90;;;;;;2071941;28;20424;-67
2021/04/03 03:27:46;;;;;;;13.82;8.90;;;2.50;99.90;;;;;;2072080;28;20172;-67
2021/04/03 03:28:49;;;;;;;15.77;9.00;;;2.50;99.90;;;;;;2072943;28;20200;-68
2021/04/03 03:29:51;;;;;;;16.40;8.50;;;2.50;99.90;;;;;;2073947;28;20189;-68
2021/04/03 03:30:53;;;;;;;14.80;8.85;;;2.50;99.90;;;;;;2073411;28;20208;-68
2021/04/03 03:31:54;;;;;;;13.88;8.95;;;2.50;99.90;;;;;;2073924;28;20212;-68
2021/04/03 03:32:55;;;;;;;12.27;8.30;;;2.50;99.90;;;;;;2081892;28;20574;-68
2021/04/03 03:33:57;;;;;;;15.17;9.03;;;2.50;99.90;;;;;;2080398;28;20177;-68
2021/04/03 03:34:58;;;;;;;15.02;8.63;;;2.40;99.90;;;;;;2082722;28;20197;-68
2021/04/03 03:35:59;;;;;;;15.67;8.93;;;2.40;99.90;;;;;;2081931;28;20191;-68
2021/04/03 03:37:00;;;;;;;15.77;8.73;;;2.30;99.90;;;;;;2073817;28;20738;-68
2021/04/03 03:38:01;;;;;;;16.52;8.80;;;2.30;99.90;;;;;;2082068;28;20453;-69
2021/04/03 03:39:05;;;;;;;13.77;8.30;;;2.30;99.90;;;;;;2082885;28;20185;-69
2021/04/03 03:40:06;;;;;;;14.48;8.50;;;2.30;99.90;;;;;;2082876;28;20177;-67
2021/04/03 03:41:08;;;;;;;12.45;8.40;;;2.30;99.90;;;;;;2081616;28;20241;-67
2021/04/03 03:42:11;;;;;;;11.77;7.85;;;2.30;99.90;;;;;;2081839;28;20207;-67
2021/04/03 03:43:16;;;;;;;12.55;8.57;;;2.40;99.90;;;;;;2082452;28;20192;-67
2021/04/03 03:44:17;;;;;;;12.75;8.32;;;2.40;99.90;;;;;;2082126;28;20167;-67
2021/04/03 03:45:20;;;;;;;11.48;7.60;;;2.50;99.90;;;;;;2074634;28;20203;-67
2021/04/03 03:46:21;;;;;;;14.18;8.60;;;2.40;99.90;;;;;;2082087;28;20176;-67
2021/04/03 03:47:21;;;;;;;14.57;7.97;;;2.40;99.90;;;;;;2082827;28;20199;-67
2021/04/03 03:48:22;;;;;;;13.97;8.93;;;2.40;99.90;;;;;;2082786;28;20192;-67
2021/04/03 03:49:23;;;;;;;10.70;7.53;;;2.40;99.90;;;;;;2082860;28;20192;-67
2021/04/03 03:50:23;;;;;;;13.10;8.53;;;2.40;99.90;;;;;;2082359;28;20722;-67
2021/04/03 03:51:24;;;;;;;15.67;7.87;;;2.40;99.90;;;;;;2081727;28;20211;-67
2021/04/03 03:52:25;;;;;;;17.70;9.17;;;2.40;99.90;;;;;;2082272;28;20895;-67
2021/04/03 03:53:25;;;;;;;16.30;8.70;;;2.40;99.90;;;;;;2082403;28;20168;-67
2021/04/03 03:54:26;;;;;;;10.93;7.63;;;2.40;99.90;;;;;;2081706;28;20655;-67
2021/04/03 03:55:27;;;;;;;13.60;8.67;;;2.40;99.90;;;;;;2082036;28;20227;-67
2021/04/03 03:56:28;;;;;;;12.97;8.00;;;2.40;99.90;;;;;;2082359;28;20172;-67
2021/04/03 03:57:29;;;;;;;13.48;8.02;;;2.40;99.90;;;;;;2082591;28;20176;-68
2021/04/03 03:58:30;;;;;;;15.93;8.07;;;2.30;99.90;;;;;;2081763;28;20648;-67
2021/04/03 03:59:31;;;;;;;15.03;8.43;;;2.30;99.90;;;;;;2082373;28;20176;-67
2021/04/03 04:00:31;;;;;;;15.77;8.47;;;2.30;99.90;;;;;;2081817;28;20176;-67
2021/04/03 04:01:32;;;;;;;13.80;8.03;;;2.30;99.90;;;;;;2081158;28;20419;-67
2021/04/03 04:02:33;;;;;;;15.43;7.70;;;2.30;99.90;;;;;;2082424;28;20176;-67
2021/04/03 04:03:33;;;;;;;15.87;7.70;;;2.30;99.90;;;;;;2082585;28;20325;-67
2021/04/03 04:04:34;;;;;;;11.93;7.23;;;2.20;99.90;;;;;;2082349;28;20180;-67
2021/04/03 04:05:35;;;;;;;15.10;8.50;;;2.20;99.90;;;;;;2082739;28;20581;-67
2021/04/03 04:06:35;;;;;;;11.23;7.37;;;2.20;99.90;;;;;;2081723;28;20188;-67
2021/04/03 04:07:36;;;;;;;12.77;8.03;;;2.20;99.90;;;;;;2081534;28;20199;-67
2021/04/03 04:08:37;;;;;;;14.57;8.80;;;2.20;99.90;;;;;;2073288;28;20205;-67
2021/04/03 04:09:38;;;;;;;13.10;7.73;;;2.30;99.90;;;;;;2081572;28;20180;-67
2021/04/03 04:10:38;;;;;;;11.70;7.60;;;2.20;99.90;;;;;;2082038;28;20195;-67
2021/04/03 04:11:39;;;;;;;13.50;7.63;;;2.30;99.90;;;;;;2082010;28;20271;-67
2021/04/03 04:12:40;;;;;;;18.33;8.07;;;2.20;99.90;;;;;;2082119;28;20177;-67
2021/04/03 04:13:41;;;;;;;13.47;7.60;;;2.10;99.90;;;;;;2081980;28;20173;-67
2021/04/03 04:14:42;;;;;;;13.73;7.70;;;2.00;99.90;;;;;;2082086;28;20644;-69
2021/04/03 04:15:42;;;;;;;12.93;8.00;;;1.90;99.90;;;;;;2082045;28;20181;-67
2021/04/03 04:16:44;;;;;;;14.30;8.30;;;1.90;99.90;;;;;;2081974;28;20211;-68
2021/04/03 04:17:44;;;;;;;14.02;8.00;;;1.80;99.90;;;;;;2082227;28;20185;-68
2021/04/03 04:18:45;;;;;;;12.33;8.00;;;1.80;99.90;;;;;;2082150;28;20222;-68
2021/04/03 04:19:46;;;;;;;11.87;7.10;;;1.70;99.90;;;;;;2081972;28;20707;-67
2021/04/03 04:20:47;;;;;;;14.77;8.13;;;1.60;99.90;;;;;;2081108;28;20184;-68
2021/04/03 04:21:47;;;;;;;13.80;8.20;;;1.60;99.90;;;;;;2080950;28;20295;-68
2021/04/03 04:22:48;;;;;;;12.33;7.63;;;1.70;99.90;;;;;;2081974;28;20513;-67
2021/04/03 04:23:49;;;;;;;13.73;7.87;;;1.60;99.90;;;;;;2082102;28;20188;-67
2021/04/03 04:24:49;;;;;;;12.30;7.70;;;1.70;99.90;;;;;;2081864;28;20639;-67
2021/04/03 04:25:50;;;;;;;12.00;7.50;;;1.60;99.90;;;;;;2081957;28;20192;-67
2021/04/03 04:26:52;;;;;;;12.77;7.97;;;1.60;99.90;;;;;;2081981;28;20663;-68
2021/04/03 04:27:53;;;;;;;16.48;7.60;;;1.60;99.90;;;;;;2081924;28;20181;-67
2021/04/03 04:28:54;;;;;;;12.70;7.80;;;1.50;99.90;;;;;;2081892;28;20184;-68
2021/04/03 04:29:54;;;;;;;15.10;8.07;;;1.50;99.90;;;;;;2081875;28;20558;-68
2021/04/03 04:30:55;;;;;;;12.53;7.80;;;1.50;99.90;;;;;;2081351;28;20543;-68
2021/04/03 04:31:56;;;;;;;13.60;7.37;;;1.40;99.90;;;;;;2081981;28;20603;-67
2021/04/03 04:32:57;;;;;;;13.30;7.63;;;1.30;99.90;;;;;;2081927;28;20185;-68
2021/04/03 04:33:57;;;;;;;15.87;8.63;;;1.30;99.90;;;;;;2081867;28;20180;-67
2021/04/03 04:34:58;;;;;;;12.10;7.17;;;1.20;99.90;;;;;;2081905;28;20241;-68
2021/04/03 04:35:59;;;;;;;11.73;7.70;;;1.20;99.90;;;;;;2081922;28;20254;-68
2021/04/03 04:36:59;;;;;;;12.43;7.60;;;1.20;99.90;;;;;;2081862;28;20187;-67
2021/04/03 04:38:00;;;;;;;11.80;7.20;;;1.20;99.90;;;;;;2081168;28;20175;-67
2021/04/03 04:39:01;;;;;;;13.67;7.37;;;1.20;99.90;;;;;;2081246;28;20177;-68
2021/04/03 04:40:04;;;;;;;10.43;7.60;;;1.20;99.90;;;;;;2089355;28;20266;-67
2021/04/03 04:41:05;;;;;;;12.80;7.32;;;1.10;99.90;;;;;;2088285;28;20194;-67
2021/04/03 04:42:06;;;;;;;14.27;8.13;;;1.10;99.90;;;;;;2089421;28;20223;-67
2021/04/03 04:43:07;;;;;;;12.90;7.97;;;1.10;99.90;;;;;;2081968;28;20187;-67
2021/04/03 04:44:07;;;;;;;13.20;7.63;;;0.90;99.90;;;;;;2081899;28;20293;-68
2021/04/03 04:45:10;;;;;;;11.00;7.63;;;0.90;99.90;;;;;;2081715;28;20218;-67
2021/04/03 04:46:11;;;;;;;11.20;7.97;;;0.80;99.90;;;;;;2081841;28;20278;-67
2021/04/03 04:47:11;;;;;;;12.73;8.33;;;0.80;99.90;;;;;;2081680;28;20179;-68
2021/04/03 04:48:12;;;;;;;11.13;7.43;;;0.80;99.90;;;;;;2081904;28;20469;-68
2021/04/03 04:49:13;;;;;;;13.60;7.47;;;0.70;99.90;;;;;;2081537;28;20188;-68
2021/04/03 04:50:14;;;;;;;14.40;7.57;;;0.70;99.90;;;;;;2081821;28;20186;-68
2021/04/03 04:51:14;;;;;;;15.17;7.30;;;0.60;99.90;;;;;;2080887;28;20662;-68
2021/04/03 04:52:15;;;;;;;13.77;8.47;;;0.60;99.90;;;;;;2081798;28;20183;-68
2021/04/03 04:53:16;;;;;;;13.30;8.17;;;0.60;99.90;;;;;;2080961;28;20208;-67
2021/04/03 04:54:16;;;;;;;15.00;7.97;;;0.50;99.90;;;;;;2081189;28;20641;-68
2021/04/03 04:55:17;;;;;;;13.20;7.60;;;0.40;99.90;;;;;;2081595;28;20260;-67
2021/04/03 04:56:18;;;;;;;10.73;7.60;;;0.30;99.90;;;;;;2081613;28;20218;-68
2021/04/03 04:57:18;;;;;;;12.47;7.97;;;0.30;99.90;;;;;;2081590;28;20257;-68
2021/04/03 04:58:19;;;;;;;12.63;8.27;;;0.20;99.90;;;;;;2081738;28;20721;-68
2021/04/03 04:59:20;;;;;;;16.50;8.87;;;0.20;99.90;;;;;;2081654;28;20181;-68
2021/04/03 05:00:21;;;;;;;12.90;7.60;;;0.20;99.90;;;;;;2081694;28;20673;-68
2021/04/03 05:01:21;;;;;;;12.82;7.95;;;0.10;99.90;;;;;;2080845;28;20185;-67
2021/04/03 05:02:23;;;;;;;13.17;7.60;;;0.10;99.90;;;;;;2081738;28;20186;-68
2021/04/03 05:03:23;;;;;;;13.63;8.35;;;0.00;99.90;;;;;;2081303;28;20180;-67
2021/04/03 05:04:24;;;;;;;11.93;7.10;;;0.00;99.90;;;;;;2081679;28;20616;-67
2021/04/03 05:05:25;;;;;;;13.47;7.27;;;0.00;99.90;;;;;;2081515;28;20178;-67
2021/04/03 05:06:26;;;;;;;13.00;7.73;;;-0.10;99.90;;;;;;2081535;28;20177;-68
2021/04/03 05:07:26;;;;;;;12.20;7.03;;;-0.10;99.90;;;;;;2081489;28;20252;-67
2021/04/03 05:08:27;;;;;;;17.17;8.63;;;-0.10;99.90;;;;;;2081630;28;20230;-67
2021/04/03 05:09:28;;;;;;;14.37;8.33;;;-0.10;99.90;;;;;;2081608;28;20190;-67
2021/04/03 05:10:28;;;;;;;14.40;7.63;;;-0.20;99.90;;;;;;2081638;28;20259;-68
2021/04/03 05:11:29;;;;;;;12.70;7.93;;;-0.20;99.90;;;;;;2080767;28;20292;-67
2021/04/03 05:12:30;;;;;;;11.17;7.33;;;-0.20;99.90;;;;;;2081524;28;20227;-68
2021/04/03 05:13:31;;;;;;;14.57;8.48;;;-0.20;99.90;;;;;;2081477;28;20184;-67
2021/04/03 05:14:32;;;;;;;13.67;7.97;;;-0.20;99.90;;;;;;2080957;28;20181;-67
2021/04/03 05:15:33;;;;;;;12.38;7.50;;;-0.20;99.90;;;;;;2080814;28;20181;-67
2021/04/03 05:16:34;;;;;;;12.90;7.37;;;-0.20;99.90;;;;;;2080978;28;20310;-67
2021/04/03 05:17:35;;;;;;;13.07;7.55;;;-0.20;99.90;;;;;;2080609;28;20227;-67
2021/04/03 05:18:36;;;;;;;15.33;8.17;;;-0.20;99.90;;;;;;2080854;28;20559;-67
2021/04/03 05:19:36;;;;;;;13.87;7.40;;;-0.20;99.90;;;;;;2081497;28;20183;-67
2021/04/03 05:20:37;;;;;;;12.87;7.77;;;-0.30;99.90;;;;;;2081458;28;20179;-67
2021/04/03 05:21:38;;;;;;;13.27;8.23;;;-0.30;99.90;;;;;;2080842;28;20291;-67
2021/04/03 05:22:38;;;;;;;9.73;6.53;;;-0.20;99.90;;;;;;2081234;28;20171;-67
2021/04/03 05:23:39;;;;;;;13.80;7.37;;;-0.30;99.90;;;;;;2081522;28;20205;-67
2021/04/03 05:24:40;;;;;;;14.87;7.53;;;-0.20;99.90;;;;;;2080684;28;20185;-67
2021/04/03 05:25:40;;;;;;;14.20;7.30;;;-0.20;99.90;;;;;;2080863;28;20699;-67
2021/04/03 05:26:41;;;;;;;11.37;7.30;;;-0.20;99.90;;;;;;2081250;28;20204;-67
2021/04/03 05:27:42;;;;;;;10.53;7.43;;;-0.20;99.90;;;;;;2078116;28;20205;-67